createdAt,value
2019-01-08T00:00:16.768Z,1.60
2019-01-08T00:01:16.716Z,1.70
2019-01-08T00:02:16.682Z,1.40
2019-01-08T00:03:16.634Z,1.20
2019-01-08T00:04:16.600Z,1.40
2019-01-08T00:05:16.555Z,1.40
2019-01-08T00:06:16.551Z,1.50
2019-01-08T00:07:17.628Z,1.50
2019-01-08T00:08:16.425Z,1.30
2019-01-08T00:09:16.366Z,1.30
2019-01-08T00:10:16.338Z,1.50
2019-01-08T00:11:16.279Z,1.30
2019-01-08T00:12:16.258Z,1.40
2019-01-08T00:13:16.187Z,1.20
2019-01-08T00:14:16.174Z,1.30
2019-01-08T00:15:16.104Z,1.40
2019-01-08T00:16:16.058Z,1.10
2019-01-08T00:17:16.014Z,1.50
2019-01-08T00:18:15.988Z,1.50
2019-01-08T00:19:15.931Z,1.30
2019-01-08T00:20:15.884Z,1.50
2019-01-08T00:21:15.836Z,1.30
2019-01-08T00:22:15.796Z,1.20
2019-01-08T00:23:15.757Z,1.50
2019-01-08T00:24:15.749Z,1.50
2019-01-08T00:25:15.668Z,1.40
2019-01-08T00:26:15.627Z,1.30
2019-01-08T00:27:15.570Z,1.40
2019-01-08T00:28:15.615Z,1.20
2019-01-08T00:29:15.487Z,1.30
2019-01-08T00:30:15.438Z,1.70
2019-01-08T00:31:15.394Z,1.30
2019-01-08T00:32:15.369Z,1.20
2019-01-08T00:33:15.305Z,1.50
2019-01-08T00:34:15.274Z,1.40
2019-01-08T00:35:15.221Z,1.30
2019-01-08T00:36:15.176Z,1.40
2019-01-08T00:37:15.130Z,1.30
2019-01-08T00:38:15.095Z,1.30
2019-01-08T00:39:15.037Z,1.40
2019-01-08T00:40:15.027Z,1.40
2019-01-08T00:41:14.957Z,1.30
2019-01-08T00:42:14.953Z,1.10
2019-01-08T00:43:14.863Z,1.40
2019-01-08T00:44:14.871Z,1.20
2019-01-08T00:45:14.778Z,1.30
2019-01-08T00:46:14.724Z,1.40
2019-01-08T00:47:14.691Z,1.30
2019-01-08T00:48:14.676Z,1.30
2019-01-08T00:49:14.601Z,1.20
2019-01-08T00:50:14.604Z,1.30
2019-01-08T00:51:14.543Z,1.20
2019-01-08T00:52:14.503Z,1.40
2019-01-08T00:53:14.445Z,1.30
2019-01-08T00:54:14.386Z,1.30
2019-01-08T00:55:14.379Z,1.10
2019-01-08T00:56:14.286Z,1.20
2019-01-08T00:57:14.255Z,1.10
2019-01-08T00:58:14.208Z,1.20
2019-01-08T00:59:14.158Z,1.10
2019-01-08T01:00:14.110Z,1.20
2019-01-08T01:01:14.061Z,1.30
2019-01-08T01:02:14.076Z,1.20
2019-01-08T01:03:13.982Z,1.40
2019-01-08T01:04:13.931Z,1.30
2019-01-08T01:05:13.894Z,1.20
2019-01-08T01:06:13.847Z,1.00
2019-01-08T01:07:13.802Z,1.20
2019-01-08T01:08:13.757Z,1.10
2019-01-08T01:09:13.709Z,1.00
2019-01-08T01:10:13.670Z,1.40
2019-01-08T01:11:13.624Z,1.30
2019-01-08T01:12:13.577Z,1.40
2019-01-08T01:13:13.532Z,1.20
2019-01-08T01:14:13.488Z,1.20
2019-01-08T01:15:13.445Z,1.20
2019-01-08T01:16:13.399Z,1.20
2019-01-08T01:17:13.350Z,1.10
2019-01-08T01:18:13.309Z,0.80
2019-01-08T01:19:13.274Z,1.20
2019-01-08T01:20:13.224Z,1.30
2019-01-08T01:21:13.176Z,1.10
2019-01-08T01:22:13.132Z,1.10
2019-01-08T01:23:13.090Z,1.20
2019-01-08T01:24:13.046Z,1.30
2019-01-08T01:25:13.002Z,1.10
2019-01-08T01:26:13.003Z,1.40
2019-01-08T01:27:12.913Z,1.20
2019-01-08T01:28:12.868Z,1.10
2019-01-08T01:29:12.832Z,1.10
2019-01-08T01:30:12.780Z,1.10
2019-01-08T01:31:12.764Z,1.20
2019-01-08T01:32:12.689Z,1.30
2019-01-08T01:33:12.649Z,1.20
2019-01-08T01:34:12.604Z,1.10
2019-01-08T01:35:12.559Z,1.10
2019-01-08T01:36:12.511Z,1.30
2019-01-08T01:37:12.467Z,1.20
2019-01-08T01:38:12.426Z,1.40
2019-01-08T01:39:12.421Z,1.10
2019-01-08T01:40:12.369Z,1.30
2019-01-08T01:41:12.293Z,1.10
2019-01-08T01:42:12.253Z,1.20
2019-01-08T01:43:12.207Z,1.30
2019-01-08T01:44:12.155Z,1.10
2019-01-08T01:45:12.113Z,1.20
2019-01-08T01:46:12.070Z,1.10
2019-01-08T01:47:12.034Z,1.00
2019-01-08T01:48:11.978Z,1.00
2019-01-08T01:49:11.939Z,1.30
2019-01-08T01:50:11.898Z,1.00
2019-01-08T01:51:11.892Z,1.30
2019-01-08T01:52:11.807Z,1.10
2019-01-08T01:53:11.755Z,1.20
2019-01-08T01:54:11.711Z,1.20
2019-01-08T01:55:11.668Z,1.00
2019-01-08T01:56:11.623Z,1.30
2019-01-08T01:57:11.583Z,1.20
2019-01-08T01:58:11.536Z,0.90
2019-01-08T01:59:11.495Z,1.00
2019-01-08T02:00:11.453Z,1.20
2019-01-08T02:01:11.408Z,1.00
2019-01-08T02:02:11.367Z,1.10
2019-01-08T02:03:11.308Z,1.10
2019-01-08T02:04:11.341Z,1.40
2019-01-08T02:05:11.253Z,1.10
2019-01-08T02:06:11.181Z,1.30
2019-01-08T02:07:11.146Z,1.10
2019-01-08T02:08:11.091Z,1.20
2019-01-08T02:09:11.068Z,1.30
2019-01-08T02:10:10.998Z,1.10
2019-01-08T02:11:10.971Z,1.00
2019-01-08T02:12:10.910Z,1.40
2019-01-08T02:13:10.863Z,0.90
2019-01-08T02:14:10.822Z,1.10
2019-01-08T02:15:10.778Z,1.00
2019-01-08T02:16:10.741Z,1.00
2019-01-08T02:17:10.692Z,1.00
2019-01-08T02:18:10.649Z,1.40
2019-01-08T02:19:10.600Z,1.20
2019-01-08T02:20:10.553Z,1.10
2019-01-08T02:21:10.511Z,0.90
2019-01-08T02:22:10.471Z,1.20
2019-01-08T02:23:10.457Z,1.20
2019-01-08T02:24:10.378Z,1.20
2019-01-08T02:25:10.368Z,1.20
2019-01-08T02:26:10.294Z,1.00
2019-01-08T02:27:10.245Z,1.30
2019-01-08T02:28:10.204Z,1.20
2019-01-08T02:29:16.476Z,1.10
2019-01-08T02:30:10.240Z,1.10
2019-01-08T02:31:10.160Z,1.30
2019-01-08T02:32:10.025Z,1.30
2019-01-08T02:33:09.989Z,1.20
2019-01-08T02:34:09.935Z,1.00
2019-01-08T02:35:09.893Z,1.20
2019-01-08T02:36:09.846Z,1.10
2019-01-08T02:37:09.803Z,1.30
2019-01-08T02:38:09.758Z,1.20
2019-01-08T02:39:09.707Z,1.20
2019-01-08T02:40:09.672Z,1.60
2019-01-08T02:41:09.701Z,1.40
2019-01-08T02:42:09.588Z,1.20
2019-01-08T02:43:09.574Z,1.30
2019-01-08T02:44:09.596Z,1.20
2019-01-08T02:45:09.482Z,1.40
2019-01-08T02:46:09.566Z,1.10
2019-01-08T02:47:09.357Z,1.00
2019-01-08T02:48:09.311Z,1.30
2019-01-08T02:49:09.263Z,1.10
2019-01-08T02:50:09.220Z,1.10
2019-01-08T02:51:09.181Z,1.40
2019-01-08T02:52:09.193Z,1.20
2019-01-08T02:53:09.086Z,1.20
2019-01-08T02:54:09.048Z,1.20
2019-01-08T02:55:08.993Z,1.20
2019-01-08T02:56:08.953Z,1.30
2019-01-08T02:57:08.912Z,1.40
2019-01-08T02:58:08.887Z,1.10
2019-01-08T02:59:08.814Z,1.40
2019-01-08T03:00:08.773Z,1.20
2019-01-08T03:01:08.731Z,1.20
2019-01-08T03:02:08.684Z,1.30
2019-01-08T03:03:08.638Z,1.20
2019-01-08T03:04:08.591Z,1.50
2019-01-08T03:05:08.558Z,1.20
2019-01-08T03:06:08.516Z,1.10
2019-01-08T03:07:08.478Z,1.30
2019-01-08T03:08:08.435Z,1.30
2019-01-08T03:09:08.370Z,1.30
2019-01-08T03:10:08.329Z,1.30
2019-01-08T03:11:08.276Z,1.40
2019-01-08T03:12:08.249Z,1.40
2019-01-08T03:13:08.197Z,1.40
2019-01-08T03:14:08.261Z,1.40
2019-01-08T03:15:08.105Z,1.50
2019-01-08T03:16:08.056Z,1.60
2019-01-08T03:17:08.012Z,1.50
2019-01-08T03:18:07.969Z,1.00
2019-01-08T03:19:07.927Z,1.30
2019-01-08T03:20:07.908Z,1.10
2019-01-08T03:21:07.842Z,1.30
2019-01-08T03:22:07.789Z,1.40
2019-01-08T03:23:07.759Z,1.40
2019-01-08T03:24:07.695Z,1.30
2019-01-08T03:25:07.659Z,1.50
2019-01-08T03:26:07.615Z,1.40
2019-01-08T03:27:07.566Z,1.50
2019-01-08T03:28:07.539Z,1.30
2019-01-08T03:29:07.480Z,1.30
2019-01-08T03:30:07.432Z,1.60
2019-01-08T03:31:07.503Z,1.30
2019-01-08T03:32:07.348Z,1.30
2019-01-08T03:33:07.299Z,1.50
2019-01-08T03:34:07.252Z,1.40
2019-01-08T03:35:07.259Z,1.50
2019-01-08T03:36:07.169Z,1.20
2019-01-08T03:37:07.116Z,1.30
2019-01-08T03:38:07.093Z,1.30
2019-01-08T03:39:07.026Z,1.50
2019-01-08T03:40:06.981Z,1.40
2019-01-08T03:41:06.936Z,1.50
2019-01-08T03:42:06.901Z,1.30
2019-01-08T03:43:06.853Z,1.40
2019-01-08T03:44:06.811Z,1.50
2019-01-08T03:45:06.758Z,1.30
2019-01-08T03:46:06.751Z,1.50
2019-01-08T03:47:06.672Z,1.40
2019-01-08T03:48:06.655Z,1.70
2019-01-08T03:49:06.622Z,1.50
2019-01-08T03:50:06.553Z,1.40
2019-01-08T03:51:06.492Z,1.40
2019-01-08T03:52:06.498Z,1.60
2019-01-08T03:53:06.405Z,1.60
2019-01-08T03:54:06.355Z,1.50
2019-01-08T03:55:06.314Z,1.60
2019-01-08T03:56:06.277Z,1.60
2019-01-08T03:57:06.223Z,1.40
2019-01-08T03:58:06.180Z,1.30
2019-01-08T03:59:06.129Z,1.50
2019-01-08T04:00:06.091Z,1.50
2019-01-08T04:01:06.043Z,1.60
2019-01-08T04:02:06.006Z,1.40
2019-01-08T04:03:05.951Z,1.90
2019-01-08T04:04:05.914Z,1.70
2019-01-08T04:05:05.868Z,1.50
2019-01-08T04:06:05.820Z,1.70
2019-01-08T04:07:05.775Z,1.30
2019-01-08T04:08:05.727Z,1.70
2019-01-08T04:09:05.696Z,1.60
2019-01-08T04:10:05.637Z,1.50
2019-01-08T04:11:05.593Z,1.80
2019-01-08T04:12:05.554Z,1.90
2019-01-08T04:13:05.506Z,1.50
2019-01-08T04:14:05.461Z,1.70
2019-01-08T04:15:05.415Z,1.50
2019-01-08T04:16:05.373Z,1.60
2019-01-08T04:17:05.373Z,1.60
2019-01-08T04:18:05.281Z,1.60
2019-01-08T04:19:05.235Z,1.70
2019-01-08T04:20:05.189Z,1.50
2019-01-08T04:21:05.162Z,1.80
2019-01-08T04:22:05.172Z,1.50
2019-01-08T04:23:05.078Z,1.60
2019-01-08T04:24:05.062Z,1.60
2019-01-08T04:25:04.972Z,1.70
2019-01-08T04:26:04.929Z,1.70
2019-01-08T04:27:04.877Z,1.80
2019-01-08T04:28:04.846Z,1.80
2019-01-08T04:29:04.956Z,1.60
2019-01-08T04:30:04.746Z,1.80
2019-01-08T04:31:04.705Z,1.50
2019-01-08T04:32:04.657Z,1.60
2019-01-08T04:33:04.634Z,1.70
2019-01-08T04:34:04.564Z,1.70
2019-01-08T04:35:04.525Z,1.40
2019-01-08T04:36:04.476Z,1.70
2019-01-08T04:37:04.450Z,1.70
2019-01-08T04:38:04.406Z,1.60
2019-01-08T04:39:04.349Z,1.70
2019-01-08T04:40:04.294Z,1.50
2019-01-08T04:41:04.263Z,1.40
2019-01-08T04:42:04.241Z,1.70
2019-01-08T04:43:04.164Z,1.70
2019-01-08T04:44:04.117Z,1.40
2019-01-08T04:45:04.075Z,1.90
2019-01-08T04:46:04.029Z,1.60
2019-01-08T04:47:03.986Z,1.80
2019-01-08T04:48:03.945Z,1.50
2019-01-08T04:49:03.945Z,1.50
2019-01-08T04:50:03.852Z,1.60
2019-01-08T04:51:03.829Z,1.60
2019-01-08T04:52:03.759Z,1.50
2019-01-08T04:53:03.720Z,1.70
2019-01-08T04:54:03.674Z,1.70
2019-01-08T04:55:03.636Z,1.30
2019-01-08T04:56:03.585Z,1.70
2019-01-08T04:57:03.579Z,1.80
2019-01-08T04:58:03.665Z,1.70
2019-01-08T04:59:03.456Z,1.90
2019-01-08T05:00:03.435Z,1.60
2019-01-08T05:01:03.361Z,1.40
2019-01-08T05:02:03.322Z,1.60
2019-01-08T05:03:03.272Z,1.70
2019-01-08T05:04:03.227Z,1.60
2019-01-08T05:05:03.182Z,1.70
2019-01-08T05:06:03.132Z,1.70
2019-01-08T05:07:03.096Z,1.60
2019-01-08T05:08:03.043Z,1.50
2019-01-08T05:09:03.006Z,1.80
2019-01-08T05:10:02.968Z,1.70
2019-01-08T05:11:02.918Z,1.80
2019-01-08T05:12:02.870Z,1.80
2019-01-08T05:13:02.824Z,1.70
2019-01-08T05:14:02.784Z,1.80
2019-01-08T05:15:02.736Z,1.60
2019-01-08T05:16:02.694Z,1.90
2019-01-08T05:17:02.647Z,1.80
2019-01-08T05:18:02.607Z,1.60
2019-01-08T05:19:02.556Z,1.60
2019-01-08T05:20:02.514Z,1.70
2019-01-08T05:21:02.474Z,1.90
2019-01-08T05:22:02.421Z,1.70
2019-01-08T05:23:02.385Z,1.90
2019-01-08T05:24:02.332Z,2.00
2019-01-08T05:25:02.295Z,1.60
2019-01-08T05:26:02.246Z,1.70
2019-01-08T05:27:02.198Z,1.60
2019-01-08T05:28:02.195Z,1.90
2019-01-08T05:29:02.119Z,1.80
2019-01-08T05:30:07.952Z,1.50
2019-01-08T05:31:02.024Z,2.00
2019-01-08T05:32:01.979Z,1.80
2019-01-08T05:33:01.936Z,1.70
2019-01-08T05:34:01.936Z,1.90
2019-01-08T05:35:01.846Z,1.90
2019-01-08T05:36:01.817Z,1.60
2019-01-08T05:37:01.902Z,1.90
2019-01-08T05:38:01.711Z,1.90
2019-01-08T05:39:01.666Z,1.90
2019-01-08T05:40:01.630Z,1.90
2019-01-08T05:41:01.577Z,2.00
2019-01-08T05:42:01.541Z,1.70
2019-01-08T05:43:01.491Z,1.80
2019-01-08T05:44:01.446Z,1.80
2019-01-08T05:45:01.401Z,1.90
2019-01-08T05:46:01.360Z,1.80
2019-01-08T05:47:01.351Z,1.90
2019-01-08T05:48:01.267Z,2.00
2019-01-08T05:49:01.228Z,2.30
2019-01-08T05:50:01.194Z,1.90
2019-01-08T05:51:01.138Z,2.30
2019-01-08T05:52:01.120Z,2.20
2019-01-08T05:53:01.053Z,1.90
2019-01-08T05:54:01.032Z,2.10
2019-01-08T05:55:00.960Z,2.20
2019-01-08T05:56:00.917Z,2.00
2019-01-08T05:57:01.078Z,1.90
2019-01-08T05:58:00.823Z,2.20
2019-01-08T05:59:00.781Z,2.30
2019-01-08T06:00:00.766Z,1.90
2019-01-08T06:01:00.684Z,2.30
2019-01-08T06:02:00.647Z,2.10
2019-01-08T06:03:00.602Z,2.10
2019-01-08T06:04:00.561Z,2.00
2019-01-08T06:05:00.510Z,2.10
2019-01-08T06:06:00.464Z,1.90
2019-01-08T06:07:00.423Z,2.00
2019-01-08T06:08:00.461Z,2.20
2019-01-08T06:09:00.334Z,2.30
2019-01-08T06:10:00.292Z,1.90
2019-01-08T06:11:00.301Z,2.00
2019-01-08T06:12:00.221Z,2.10
2019-01-08T06:13:00.157Z,2.00
2019-01-08T06:14:00.110Z,2.00
2019-01-08T06:15:00.082Z,1.70
2019-01-08T06:16:00.021Z,1.80
2019-01-08T06:16:59.976Z,1.90
2019-01-08T06:17:59.934Z,2.00
2019-01-08T06:18:59.891Z,2.10
2019-01-08T06:19:59.847Z,2.10
2019-01-08T06:20:59.799Z,2.10
2019-01-08T06:21:59.760Z,2.20
2019-01-08T06:22:59.717Z,2.20
2019-01-08T06:23:59.675Z,2.40
2019-01-08T06:25:00.682Z,2.40
2019-01-08T06:25:59.584Z,2.20
2019-01-08T06:26:59.538Z,2.20
2019-01-08T06:27:59.495Z,2.00
2019-01-08T06:28:59.450Z,2.10
2019-01-08T06:29:59.406Z,2.50
2019-01-08T06:30:59.363Z,2.30
2019-01-08T06:31:59.317Z,2.30
2019-01-08T06:32:59.274Z,2.00
2019-01-08T06:33:59.226Z,2.30
2019-01-08T06:34:59.191Z,2.40
2019-01-08T06:35:59.142Z,2.40
2019-01-08T06:36:59.098Z,2.70
2019-01-08T06:37:59.048Z,2.50
2019-01-08T06:38:59.012Z,2.20
2019-01-08T06:39:58.981Z,2.30
2019-01-08T06:40:58.922Z,2.30
2019-01-08T06:41:58.917Z,2.20
2019-01-08T11:29:02.871Z,2.80
2019-01-08T11:30:02.792Z,2.80
2019-01-08T11:31:55.576Z,2.60
2019-01-08T11:32:55.519Z,2.80
2019-01-08T11:34:48.360Z,2.60
2019-01-08T11:35:48.254Z,3.00
2019-01-08T11:37:41.039Z,3.00
2019-01-08T11:38:40.989Z,3.00
2019-01-08T11:40:33.794Z,2.90
2019-01-08T11:41:33.725Z,3.30
2019-01-08T11:43:26.983Z,2.90
2019-01-08T11:44:26.934Z,2.90
2019-01-08T11:46:20.254Z,2.90
2019-01-08T11:47:20.183Z,2.50
2019-01-08T11:49:13.477Z,2.90
2019-01-08T11:50:13.426Z,2.90
2019-01-08T11:52:06.753Z,2.90
2019-01-08T11:53:06.680Z,2.70
2019-01-08T11:54:59.485Z,2.80
2019-01-08T11:55:59.423Z,2.50
2019-01-08T11:57:52.237Z,2.80
2019-01-08T11:58:52.165Z,2.70
2019-01-08T12:00:44.984Z,3.20
2019-01-08T12:01:44.912Z,2.60
2019-01-08T12:03:37.709Z,2.60
2019-01-08T12:04:37.662Z,2.50
2019-01-08T12:06:30.481Z,2.70
2019-01-08T12:07:31.312Z,2.90
2019-01-08T12:09:23.698Z,2.60
2019-01-08T12:10:23.655Z,3.10
2019-01-08T12:12:17.091Z,3.60
2019-01-08T12:13:17.019Z,3.40
2019-01-08T12:15:10.413Z,3.90
2019-01-08T12:16:10.368Z,4.70
2019-01-08T12:18:03.182Z,4.00
2019-01-08T12:19:03.117Z,3.80
2019-01-08T12:20:56.437Z,4.60
2019-01-08T12:21:56.365Z,5.00
2019-01-08T12:23:49.159Z,5.30
2019-01-08T12:24:49.188Z,5.90
2019-01-08T12:26:41.946Z,6.50
2019-01-08T12:27:41.882Z,6.20
2019-01-08T12:29:34.680Z,6.40
2019-01-08T12:30:34.632Z,6.20
2019-01-08T12:32:27.451Z,6.90
2019-01-08T12:33:27.378Z,7.20
2019-01-08T12:35:20.679Z,6.40
2019-01-08T12:36:20.627Z,6.70
2019-01-08T12:38:13.953Z,6.60
2019-01-08T12:39:13.876Z,8.50
2019-01-08T12:41:07.135Z,7.70
2019-01-08T12:42:07.087Z,8.10
2019-01-08T12:43:59.903Z,7.40
2019-01-08T12:44:59.839Z,8.20
2019-01-08T12:46:52.634Z,8.20
2019-01-08T12:47:52.591Z,6.60
2019-01-08T12:49:45.396Z,7.00
2019-01-08T12:50:45.390Z,6.90
2019-01-08T12:52:38.186Z,6.80
2019-01-08T12:53:38.080Z,7.40
2019-01-08T12:55:30.885Z,7.30
2019-01-08T12:56:30.846Z,6.90
2019-01-08T12:58:23.655Z,6.70
2019-01-08T12:59:23.586Z,6.30
2019-01-08T13:01:16.876Z,6.20
2019-01-08T13:02:16.825Z,6.40
2019-01-08T13:04:10.256Z,6.20
2019-01-08T13:05:10.060Z,6.10
2019-01-08T13:07:03.326Z,6.20
2019-01-08T13:08:03.272Z,6.20
2019-01-08T13:09:56.569Z,6.00
2019-01-08T13:10:56.499Z,6.00
2019-01-08T13:12:49.773Z,6.00
2019-01-08T13:13:49.749Z,5.90
2019-01-08T13:15:42.542Z,5.60
2019-01-08T13:16:43.993Z,5.70
2019-01-08T13:18:35.291Z,4.80
2019-01-08T13:19:35.233Z,5.90
2019-01-08T13:21:28.441Z,5.80
2019-01-08T13:22:28.387Z,5.30
2019-01-08T13:24:21.204Z,5.50
2019-01-08T13:25:21.136Z,5.40
2019-01-08T13:27:14.922Z,5.20
2019-01-08T13:28:14.877Z,5.70
2019-01-08T13:30:08.204Z,4.80
2019-01-08T13:31:08.171Z,4.50
2019-01-08T13:33:01.463Z,4.50
2019-01-08T13:34:01.417Z,4.90
2019-01-08T13:35:54.821Z,4.20
2019-01-08T13:36:54.765Z,4.40
2019-01-08T13:38:47.552Z,4.30
2019-01-08T13:39:47.502Z,4.30
2019-01-08T13:41:40.321Z,4.40
2019-01-08T13:42:40.263Z,4.50
2019-01-08T13:44:33.065Z,4.10
2019-01-08T13:45:33.003Z,4.50
2019-01-08T13:47:25.824Z,4.30
2019-01-08T13:48:25.752Z,3.90
2019-01-08T13:50:18.575Z,4.10
2019-01-08T13:51:18.500Z,4.10
2019-01-08T13:53:11.798Z,4.10
2019-01-08T13:54:11.747Z,3.80
2019-01-08T13:56:05.066Z,3.80
2019-01-08T13:57:04.990Z,3.80
2019-01-08T13:58:57.797Z,3.70
2019-01-08T13:59:57.747Z,4.10
2019-01-08T14:01:50.566Z,4.10
2019-01-08T14:02:50.499Z,4.00
2019-01-08T14:04:43.300Z,3.80
2019-01-08T14:05:43.251Z,3.40
2019-01-08T14:07:36.075Z,3.40
2019-01-08T14:08:36.006Z,3.90
2019-01-08T14:10:28.807Z,3.70
2019-01-08T14:11:28.766Z,3.60
2019-01-08T14:13:22.282Z,3.40
2019-01-08T14:14:22.213Z,3.80
2019-01-08T14:16:15.033Z,3.50
2019-01-08T14:17:14.966Z,3.60
2019-01-08T14:19:08.762Z,3.50
2019-01-08T14:20:08.759Z,4.00
2019-01-08T14:22:02.017Z,3.30
2019-01-08T14:23:01.946Z,3.80
2019-01-08T14:24:54.744Z,3.50
2019-01-08T14:25:54.696Z,3.70
2019-01-08T14:27:47.511Z,3.30
2019-01-08T14:28:47.448Z,3.60
2019-01-08T14:30:40.310Z,3.30
2019-01-08T14:31:40.271Z,3.40
2019-01-08T14:33:33.182Z,3.30
2019-01-08T14:34:33.075Z,3.40
2019-01-08T14:36:25.863Z,3.10
2019-01-08T14:37:25.792Z,3.40
2019-01-08T14:39:18.595Z,3.30
2019-01-08T14:40:18.541Z,3.30
2019-01-08T14:42:11.368Z,3.00
2019-01-08T14:43:14.252Z,2.90
2019-01-08T14:45:04.640Z,3.40
2019-01-08T14:46:04.591Z,2.80
2019-01-08T14:47:57.913Z,3.20
2019-01-08T14:48:57.846Z,3.20
2019-01-08T14:50:51.193Z,3.30
2019-01-08T17:40:55.872Z,2.10
2019-01-08T17:41:55.787Z,2.60
2019-01-08T17:43:49.073Z,4.60
2019-01-08T17:44:49.016Z,4.50
2019-01-08T17:46:42.361Z,20.70
2019-01-08T17:47:42.286Z,32.00
2019-01-08T17:49:35.089Z,27.00
2019-01-08T17:50:35.777Z,26.10
2019-01-08T17:52:28.422Z,21.80
2019-01-08T17:53:28.349Z,22.70
2019-01-08T17:55:21.162Z,19.50
2019-01-08T17:56:21.083Z,22.50
2019-01-08T17:58:13.879Z,20.70
2019-01-08T17:59:13.828Z,21.80
2019-01-08T18:01:06.685Z,20.10
2019-01-08T18:02:06.573Z,18.70
2019-01-08T18:03:59.392Z,18.60
2019-01-08T18:04:59.372Z,16.70
2019-01-08T18:06:52.157Z,16.40
2019-01-08T18:07:52.083Z,16.30
2019-01-08T18:09:44.876Z,15.00
2019-01-08T18:10:44.824Z,14.70
2019-01-08T18:12:38.162Z,13.70
2019-01-08T18:13:38.097Z,12.80
2019-01-08T18:15:31.518Z,13.10
2019-01-08T18:16:31.350Z,11.90
2019-01-08T18:18:24.666Z,12.30
2019-01-08T18:19:24.615Z,12.00
2019-01-08T18:21:17.432Z,11.40
2019-01-08T18:22:17.376Z,12.00
2019-01-08T18:24:10.159Z,11.10
2019-01-08T18:25:10.109Z,11.30
2019-01-08T18:27:02.936Z,10.60
2019-01-08T18:28:02.860Z,11.00
2019-01-08T18:29:55.662Z,10.00
2019-01-08T18:30:55.611Z,9.50
2019-01-08T18:32:48.431Z,9.60
2019-01-08T18:33:51.648Z,9.60
2019-01-08T18:35:41.158Z,9.40
2019-01-08T18:36:41.111Z,9.50
2019-01-08T18:38:34.438Z,9.30
2019-01-08T18:39:34.370Z,9.30
2019-01-08T18:41:27.729Z,8.90
2019-01-08T18:42:27.650Z,9.00
2019-01-08T18:44:20.454Z,8.50
2019-01-08T18:45:20.405Z,8.60
2019-01-08T18:47:13.228Z,8.40
2019-01-08T18:48:13.153Z,8.70
2019-01-08T18:50:06.005Z,8.20
2019-01-08T18:51:05.907Z,7.80
2019-01-08T18:52:58.736Z,8.00
2019-01-08T18:53:58.664Z,7.90
2019-01-08T18:55:51.465Z,7.40
2019-01-08T18:56:51.417Z,7.90
2019-01-08T18:58:44.369Z,8.30
2019-01-08T18:59:44.175Z,7.40
2019-01-08T19:01:37.614Z,7.70
2019-01-08T19:02:37.458Z,7.50
2019-01-08T19:04:30.762Z,7.40
2019-01-08T19:05:30.716Z,7.10
2019-01-08T19:07:24.056Z,7.00
2019-01-08T19:08:23.987Z,6.60
2019-01-08T19:10:16.797Z,7.20
2019-01-08T19:11:16.738Z,6.90
2019-01-08T19:13:09.560Z,6.90
2019-01-08T19:14:09.499Z,6.70
2019-01-08T19:16:02.293Z,6.50
2019-01-08T19:17:02.243Z,7.20
2019-01-08T19:18:55.164Z,6.70
2019-01-08T19:19:54.989Z,7.10
2019-01-08T19:21:48.024Z,6.40
2019-01-08T19:22:47.817Z,7.00
2019-01-08T19:24:41.191Z,6.70
2019-01-08T19:25:41.146Z,6.50
2019-01-08T19:27:34.486Z,6.20
2019-01-08T19:28:34.416Z,6.80
2019-01-08T19:30:27.767Z,5.90
2019-01-08T19:31:27.720Z,6.00
2019-01-08T19:33:21.049Z,5.80
2019-01-08T19:34:20.983Z,6.50
2019-01-08T19:36:14.328Z,5.70
2019-01-08T19:37:14.284Z,5.90
2019-01-08T19:39:07.612Z,6.50
2019-01-08T19:40:07.549Z,6.20
2019-01-08T19:42:00.834Z,5.70
2019-01-08T19:43:00.787Z,5.80
2019-01-08T19:44:54.084Z,6.20
2019-01-08T19:45:54.015Z,5.80
2019-01-08T19:47:46.871Z,6.20
2019-01-08T19:48:46.764Z,5.70
2019-01-08T19:50:40.120Z,5.80
2019-01-08T19:51:40.068Z,5.70
2019-01-08T19:53:33.413Z,5.40
2019-01-08T19:54:33.359Z,5.70
2019-01-08T19:56:26.706Z,36.40
2019-01-08T19:57:26.669Z,110.50
2019-01-08T19:59:19.991Z,85.70
2019-01-08T20:00:19.966Z,66.20
2019-01-08T20:02:13.274Z,62.00
2019-01-08T20:03:13.223Z,55.30
2019-01-08T20:05:06.044Z,48.80
2019-01-08T20:06:05.975Z,46.80
2019-01-08T20:07:59.323Z,43.30
2019-01-08T20:08:59.258Z,42.50
2019-01-08T20:10:52.813Z,41.00
2019-01-08T20:11:52.706Z,39.80
2019-01-08T20:13:45.528Z,36.60
2019-01-08T20:14:45.460Z,36.60
2019-01-08T20:16:38.793Z,33.70
2019-01-08T20:17:38.743Z,33.60
2019-01-08T20:19:31.564Z,31.30
2019-01-08T20:20:31.522Z,31.30
2019-01-08T20:22:24.805Z,29.40
2019-01-08T20:23:24.759Z,29.10
2019-01-08T20:25:17.575Z,28.50
2019-01-08T20:26:17.507Z,28.40
2019-01-08T20:28:10.869Z,26.90
2019-01-08T20:29:10.789Z,25.00
2019-01-08T20:31:03.588Z,24.60
2019-01-08T20:32:03.643Z,24.40
2019-01-08T20:33:56.402Z,23.50
2019-01-08T20:34:56.293Z,23.70
2019-01-08T20:36:49.088Z,22.30
2019-01-08T20:37:49.041Z,21.90
2019-01-08T20:39:41.869Z,21.30
2019-01-08T20:40:41.797Z,21.50
2019-01-08T20:42:34.599Z,20.70
2019-01-08T20:43:34.573Z,19.90
2019-01-08T20:45:27.877Z,18.70
2019-01-08T20:46:27.808Z,18.80
2019-01-08T20:48:21.159Z,18.00
2019-01-08T20:49:21.114Z,18.10
2019-01-08T20:51:14.851Z,17.10
2019-01-08T20:52:14.802Z,16.90
2019-01-08T20:54:08.206Z,17.90
2019-01-08T20:55:08.130Z,16.90
2019-01-08T20:57:08.957Z,16.30
2019-01-08T20:58:01.400Z,16.60
2019-01-08T20:59:54.211Z,16.00
2019-01-08T21:00:54.137Z,15.20
2019-01-08T21:02:46.942Z,15.00
2019-01-08T21:03:46.889Z,14.90
2019-01-08T21:05:39.709Z,14.80
2019-01-08T21:06:39.642Z,14.20
2019-01-08T21:08:32.945Z,14.80
2019-01-08T21:09:32.897Z,14.10
2019-01-08T21:11:26.222Z,14.10
2019-01-08T21:12:26.152Z,13.90
2019-01-08T21:14:19.499Z,12.60
2019-01-08T21:15:19.430Z,12.90
2019-01-08T21:17:12.738Z,14.10
2019-01-08T21:18:12.688Z,13.90
2019-01-08T21:20:05.559Z,13.50
2019-01-08T21:21:05.489Z,13.40
2019-01-08T21:22:58.287Z,12.50
2019-01-08T21:23:58.238Z,12.10
2019-01-08T21:25:51.058Z,13.20
2019-01-08T21:26:50.988Z,12.00
2019-01-08T21:28:43.789Z,11.90
2019-01-08T21:29:43.733Z,11.30
2019-01-08T21:31:36.556Z,13.00
2019-01-08T21:32:36.485Z,11.90
2019-01-08T21:34:29.771Z,11.00
2019-01-08T21:35:29.704Z,11.80
2019-01-08T21:37:23.010Z,11.20
2019-01-08T21:38:22.963Z,10.60
2019-01-08T21:40:16.284Z,11.20
2019-01-08T21:41:16.218Z,10.60
2019-01-08T21:43:09.519Z,11.10
2019-01-08T21:44:09.464Z,10.80
2019-01-08T21:46:02.282Z,11.10
2019-01-08T21:47:02.220Z,9.90
2019-01-08T21:48:55.012Z,10.40
2019-01-08T21:49:55.035Z,11.20
2019-01-08T21:51:47.786Z,10.40
2019-01-08T21:52:47.720Z,10.20
2019-01-08T21:54:40.536Z,10.50
2019-01-08T21:55:40.470Z,9.90
2019-01-08T21:57:33.275Z,9.80
2019-01-08T21:58:33.234Z,9.60
2019-01-08T22:00:26.554Z,9.70
2019-01-08T22:01:26.512Z,10.00
2019-01-08T22:03:19.754Z,10.10
2019-01-08T22:04:19.705Z,9.70
2019-01-08T22:06:13.039Z,9.60
2019-01-08T22:07:12.972Z,9.60
2019-01-08T22:09:06.324Z,9.70
2019-01-08T22:10:06.275Z,9.40
2019-01-08T22:11:59.609Z,9.20
2019-01-08T22:12:59.536Z,8.80
2019-01-08T22:14:52.337Z,8.80
2019-01-08T22:15:52.290Z,8.90
2019-01-08T22:17:45.111Z,8.80
2019-01-08T22:18:45.059Z,9.00
2019-01-08T22:20:37.855Z,9.30
2019-01-08T22:21:37.791Z,9.00
2019-01-08T22:23:30.587Z,8.50
2019-01-08T22:24:30.541Z,8.80
2019-01-08T22:26:23.889Z,8.70
2019-01-08T22:27:23.822Z,8.20
2019-01-08T22:29:17.127Z,8.30
2019-01-08T22:30:17.083Z,8.00
2019-01-08T22:32:10.382Z,8.70
2019-01-08T22:33:10.311Z,7.80
2019-01-08T22:35:03.624Z,8.40
2019-01-08T22:36:03.572Z,8.20
2019-01-08T22:37:56.904Z,8.20
2019-01-08T22:38:56.843Z,7.90
2019-01-08T22:40:49.662Z,7.40
2019-01-08T22:41:49.588Z,7.60
2019-01-08T22:43:42.912Z,7.90
2019-01-08T22:44:42.825Z,7.60
2019-01-08T22:46:35.636Z,7.50
2019-01-08T22:47:35.567Z,7.30
2019-01-08T22:49:28.566Z,7.10
2019-01-08T22:50:28.526Z,7.40
2019-01-08T22:52:21.837Z,7.40
2019-01-08T22:53:21.766Z,7.60
2019-01-08T22:55:15.106Z,7.00
2019-01-08T22:56:15.067Z,7.10
2019-01-08T22:58:07.900Z,6.50
2019-01-08T22:59:07.842Z,6.80
2019-01-08T23:01:01.161Z,6.50
2019-01-08T23:02:01.076Z,6.80
2019-01-08T23:03:54.383Z,6.40
2019-01-08T23:04:54.351Z,7.20
2019-01-08T23:06:47.154Z,6.80
2019-01-08T23:07:47.088Z,7.10
2019-01-08T23:09:39.881Z,6.70
2019-01-08T23:10:39.840Z,6.90
2019-01-08T23:12:32.667Z,6.70
2019-01-08T23:13:32.599Z,6.40
2019-01-08T23:15:25.401Z,6.40
2019-01-08T23:16:25.355Z,6.30
2019-01-08T23:18:18.174Z,6.30
2019-01-08T23:19:18.105Z,6.30
2019-01-08T23:21:11.414Z,6.30
2019-01-08T23:22:11.368Z,6.50
2019-01-08T23:24:04.709Z,6.00
2019-01-08T23:25:04.628Z,6.80
2019-01-08T23:26:57.942Z,5.80
2019-01-08T23:27:57.876Z,6.10
2019-01-08T23:29:50.679Z,6.10
2019-01-08T23:30:50.637Z,6.00
2019-01-08T23:32:43.445Z,6.50
2019-01-08T23:33:43.374Z,6.30
2019-01-08T23:35:36.176Z,5.80
2019-01-08T23:36:36.127Z,6.00
2019-01-08T23:38:28.953Z,6.20
2019-01-08T23:39:28.884Z,6.10
2019-01-08T23:41:22.203Z,6.20